Terminal Aerodrome Forecast
Issued by NWS Cleveland, OH

Home | Current Version | Previous Version | Text Only | Print | Product List | Glossary Off
Versions: 1 2 3 4 5 6 7 8 9 10 11 12 13 14 15 16 17 18 19 20

000
FTUS41 KCLE 302335
TAFMFD
TAF
KMFD 302335Z 3100/3124 25003KT P6SM FEW060 BKN250
     FM310400 24006KT P6SM VCSH BKN050 OVC100
      TEMPO 3104/3108 5SM -SHRA BKN025
     FM311200 24006KT 5SM BR OVC025
      TEMPO 3112/3116 3SM -SHRA
     FM311800 34008KT P6SM OVC035=

USA.gov is the U.S. government's official web portal to all federal, state and local government web resources and services.